Time;durP1;ratioP1;P1;durP2;ratioP2;P2;SDS_P1;SDS_P2;PMS_P1;PMS_P2;Temp;Humidity;BMP_temperature;BMP_pressure;BME280_temperature;BME280_humidity;BME280_pressure;Samples;Min_cycle;Max_cycle;Signal;HPM_P1;HPM_P2
2022/12/03 00:02:16;;;;;;;11.65;10.48;;;;;;;;;;5072349;28;20036;-80
2022/12/03 00:04:41;;;;;;;11.25;10.15;;;;;;;;;;5081092;28;20081;-81
2022/12/03 00:07:06;;;;;;;17.23;15.52;;;;;;;;;;5075931;28;21340;-81
2022/12/03 00:09:32;;;;;;;14.05;12.63;;;;;;;;;;5073432;28;20913;-80
2022/12/03 00:11:57;;;;;;;15.13;13.52;;;;;;;;;;5081684;28;20088;-81
2022/12/03 00:14:22;;;;;;;12.75;11.48;;;;;;;;;;5068899;28;20028;-82
2022/12/03 00:16:48;;;;;;;11.98;10.80;;;;;;;;;;5067665;28;20032;-80
2022/12/03 00:19:13;;;;;;;11.95;10.75;;;;;;;;;;5064655;28;20107;-82
2022/12/03 00:21:38;;;;;;;10.43;9.50;;;;;;;;;;5076566;28;20063;-82
2022/12/03 00:24:04;;;;;;;11.23;10.13;;;;;;;;;;5075573;28;20435;-81
2022/12/03 00:26:29;;;;;;;12.50;11.20;;;;;;;;;;5073166;28;20386;-82
2022/12/03 00:28:56;;;;;;;12.82;11.60;;;;;;;;;;5078005;28;20047;-81
2022/12/03 00:31:22;;;;;;;11.88;10.68;;;;;;;;;;5070830;28;20089;-80
2022/12/03 00:33:52;;;;;;;11.55;10.45;;;;;;;;;;5065518;28;20028;-82
2022/12/03 00:36:20;;;;;;;11.80;10.70;;;;;;;;;;5064763;28;20036;-81
2022/12/03 00:38:46;;;;;;;11.75;10.63;;;;;;;;;;5066661;28;20039;-79
2022/12/03 00:41:11;;;;;;;11.15;10.05;;;;;;;;;;5071775;28;20336;-81
2022/12/03 00:43:37;;;;;;;11.20;10.10;;;;;;;;;;5077291;28;20027;-80
2022/12/03 00:46:02;;;;;;;11.18;10.13;;;;;;;;;;5071741;28;20028;-82
2022/12/03 00:48:27;;;;;;;11.23;10.13;;;;;;;;;;5067690;28;21036;-81
2022/12/03 00:50:54;;;;;;;11.52;10.38;;;;;;;;;;5071809;28;20024;-80
2022/12/03 00:53:19;;;;;;;11.52;10.43;;;;;;;;;;5070252;28;20024;-81
2022/12/03 00:55:45;;;;;;;11.43;10.32;;;;;;;;;;5068887;28;20039;-80
2022/12/03 00:58:10;;;;;;;14.50;13.02;;;;;;;;;;5069344;28;20433;-79
2022/12/03 01:00:35;;;;;;;13.05;11.75;;;;;;;;;;5070511;28;20411;-78
2022/12/03 01:03:01;;;;;;;11.35;10.35;;;;;;;;;;5064694;28;20435;-78
2022/12/03 01:05:26;;;;;;;12.32;11.13;;;;;;;;;;5080384;28;20024;-78
2022/12/03 01:07:52;;;;;;;26.00;21.27;;;;;;;;;;5055844;28;20044;-78
2022/12/03 01:10:17;;;;;;;14.90;13.32;;;;;;;;;;5065784;28;20051;-79
2022/12/03 01:12:42;;;;;;;12.73;11.52;;;;;;;;;;5067613;28;20047;-78
2022/12/03 01:15:08;;;;;;;11.95;10.68;;;;;;;;;;5078577;28;20039;-78
2022/12/03 01:17:34;;;;;;;11.93;10.77;;;;;;;;;;5066943;28;20027;-79
2022/12/03 01:20:00;;;;;;;13.00;11.60;;;;;;;;;;5067188;28;20032;-79
2022/12/03 01:22:26;;;;;;;14.90;13.40;;;;;;;;;;5072513;28;20569;-78
2022/12/03 01:24:51;;;;;;;12.93;11.57;;;;;;;;;;5074031;28;20024;-78
2022/12/03 01:27:16;;;;;;;16.48;14.05;;;;;;;;;;5075576;28;20035;-79
2022/12/03 01:29:42;;;;;;;12.02;10.88;;;;;;;;;;5074412;28;20403;-78
2022/12/03 01:32:18;;;;;;;12.07;10.88;;;;;;;;;;5064533;28;20376;-78
2022/12/03 01:34:47;;;;;;;10.57;9.48;;;;;;;;;;5074067;28;20020;-81
2022/12/03 01:37:12;;;;;;;11.50;10.18;;;;;;;;;;5078769;28;21081;-79
2022/12/03 01:39:38;;;;;;;11.30;10.30;;;;;;;;;;5077505;28;20035;-81
2022/12/03 01:42:04;;;;;;;11.70;10.50;;;;;;;;;;5074878;28;20032;-80
2022/12/03 01:44:30;;;;;;;11.77;10.50;;;;;;;;;;5068380;28;20596;-82
2022/12/03 01:46:57;;;;;;;20.23;17.00;;;;;;;;;;5070654;28;20024;-81
2022/12/03 01:49:24;;;;;;;15.35;13.68;;;;;;;;;;5067999;28;20031;-80
2022/12/03 01:51:50;;;;;;;13.07;11.88;;;;;;;;;;5068259;28;20029;-81
2022/12/03 01:54:17;;;;;;;12.15;10.95;;;;;;;;;;5076975;28;20027;-81
2022/12/03 01:56:43;;;;;;;12.75;11.55;;;;;;;;;;5056208;28;20354;-79
2022/12/03 01:59:12;;;;;;;11.20;10.20;;;;;;;;;;5075684;28;20032;-80
2022/12/03 02:01:37;;;;;;;12.38;11.10;;;;;;;;;;5068089;28;20024;-80
2022/12/03 02:04:03;;;;;;;12.35;11.05;;;;;;;;;;5066532;28;20039;-79
2022/12/03 02:06:29;;;;;;;12.32;11.18;;;;;;;;;;5074142;28;20047;-79
2022/12/03 02:08:58;;;;;;;13.15;11.85;;;;;;;;;;5076818;28;20331;-81
2022/12/03 02:11:32;;;;;;;12.18;10.95;;;;;;;;;;5076028;28;20106;-79
2022/12/03 02:14:00;;;;;;;12.18;11.02;;;;;;;;;;5066913;28;20039;-79
2022/12/03 02:16:26;;;;;;;12.52;11.35;;;;;;;;;;5073184;28;20042;-79
2022/12/03 02:18:52;;;;;;;16.95;14.70;;;;;;;;;;5061666;28;20432;-80
2022/12/03 02:21:35;;;;;;;14.02;12.73;;;;;;;;;;5072497;28;20102;-81
2022/12/03 02:24:06;;;;;;;12.30;10.98;;;;;;;;;;5068561;28;20036;-79
2022/12/03 02:26:32;;;;;;;14.77;11.75;;;;;;;;;;5075900;28;20036;-80
2022/12/03 02:28:57;;;;;;;14.15;12.75;;;;;;;;;;5074258;28;20092;-79
2022/12/03 02:31:23;;;;;;;12.55;11.35;;;;;;;;;;5073221;28;20964;-79
2022/12/03 02:33:48;;;;;;;14.10;12.73;;;;;;;;;;5063754;28;20024;-78
2022/12/03 02:36:14;;;;;;;14.07;12.65;;;;;;;;;;5068141;28;20109;-78
2022/12/03 02:38:40;;;;;;;15.13;11.95;;;;;;;;;;5068545;28;20111;-79
2022/12/03 02:41:07;;;;;;;12.23;11.00;;;;;;;;;;5075103;28;20237;-79
2022/12/03 02:43:32;;;;;;;11.57;10.48;;;;;;;;;;5074265;28;20032;-80
2022/12/03 02:45:58;;;;;;;11.48;10.38;;;;;;;;;;5071126;28;20338;-80
2022/12/03 02:48:24;;;;;;;12.45;11.25;;;;;;;;;;5069946;28;20077;-79
2022/12/03 02:50:51;;;;;;;11.60;10.32;;;;;;;;;;5075209;28;20152;-81
2022/12/03 02:53:41;;;;;;;12.95;11.65;;;;;;;;;;5061827;28;20027;-82
2022/12/03 02:56:07;;;;;;;12.05;10.85;;;;;;;;;;5058039;28;20394;-86
2022/12/03 02:58:33;;;;;;;11.32;10.23;;;;;;;;;;5073506;28;20035;-80
2022/12/03 03:00:59;;;;;;;12.40;11.18;;;;;;;;;;5070913;28;20366;-84
2022/12/03 03:03:26;;;;;;;11.07;10.07;;;;;;;;;;5063922;28;20028;-85
2022/12/03 03:05:52;;;;;;;11.70;10.60;;;;;;;;;;5070927;28;20032;-86
2022/12/03 03:08:18;;;;;;;11.77;10.57;;;;;;;;;;5063416;28;20077;-80
2022/12/03 03:10:43;;;;;;;12.55;11.35;;;;;;;;;;5069213;28;20105;-79
2022/12/03 03:13:10;;;;;;;12.25;10.85;;;;;;;;;;5075610;28;20067;-78
2022/12/03 03:15:39;;;;;;;11.20;10.07;;;;;;;;;;5070103;28;20032;-78
2022/12/03 03:18:05;;;;;;;11.23;10.13;;;;;;;;;;5068124;28;20032;-78
2022/12/03 03:20:30;;;;;;;10.90;9.80;;;;;;;;;;5053640;28;20090;-78
2022/12/03 03:23:04;;;;;;;10.93;9.82;;;;;;;;;;5046816;28;20062;-77
2022/12/03 03:25:29;;;;;;;11.02;10.02;;;;;;;;;;5066751;28;20032;-81
2022/12/03 03:27:54;;;;;;;11.68;10.52;;;;;;;;;;5073475;28;20061;-81
2022/12/03 03:30:20;;;;;;;11.70;10.60;;;;;;;;;;5069066;28;20036;-79
2022/12/03 03:32:45;;;;;;;11.60;10.43;;;;;;;;;;5074916;28;20348;-79
2022/12/03 03:35:12;;;;;;;11.38;10.18;;;;;;;;;;5073690;28;20652;-79
2022/12/03 03:37:38;;;;;;;11.73;10.60;;;;;;;;;;5067948;28;20028;-79
2022/12/03 03:40:03;;;;;;;11.02;9.93;;;;;;;;;;5066226;28;20030;-84
2022/12/03 03:42:29;;;;;;;10.95;9.85;;;;;;;;;;5071282;28;20439;-82
2022/12/03 03:44:54;;;;;;;10.50;9.52;;;;;;;;;;5072050;28;20039;-79
2022/12/03 03:47:20;;;;;;;11.85;10.65;;;;;;;;;;5043445;28;20033;-80
2022/12/03 03:49:46;;;;;;;11.43;10.30;;;;;;;;;;5055897;28;20423;-80
2022/12/03 03:52:12;;;;;;;11.77;10.57;;;;;;;;;;5069970;28;20035;-80
2022/12/03 03:54:38;;;;;;;11.95;10.75;;;;;;;;;;5068570;28;20021;-80
2022/12/03 03:57:03;;;;;;;11.23;10.13;;;;;;;;;;5070757;28;20067;-81
2022/12/03 03:59:29;;;;;;;11.95;10.75;;;;;;;;;;5062369;28;20024;-78
2022/12/03 04:01:54;;;;;;;12.23;11.02;;;;;;;;;;5066310;28;20028;-80
2022/12/03 04:04:20;;;;;;;11.43;10.32;;;;;;;;;;5068318;28;20021;-79
2022/12/03 04:06:46;;;;;;;12.82;11.60;;;;;;;;;;5065214;28;20039;-81
2022/12/03 04:09:11;;;;;;;14.93;13.43;;;;;;;;;;5048177;28;20032;-81
2022/12/03 04:14:21;;;;;;;11.55;10.43;;;;;;;;;;5076463;28;20057;-81
2022/12/03 04:16:46;;;;;;;12.18;10.98;;;;;;;;;;5072991;28;20035;-81
2022/12/03 04:19:11;;;;;;;11.50;10.30;;;;;;;;;;5071724;28;20113;-80
2022/12/03 04:24:21;;;;;;;12.95;11.65;;;;;;;;;;5062199;28;20031;-80
2022/12/03 04:29:30;;;;;;;12.88;11.65;;;;;;;;;;5069534;28;20085;-80
2022/12/03 04:37:23;;;;;;;11.00;9.90;;;;;;;;;;5079894;28;20043;-80
2022/12/03 04:39:49;;;;;;;13.20;11.95;;;;;;;;;;5080703;28;20020;-80
2022/12/03 04:42:14;;;;;;;13.90;12.60;;;;;;;;;;5079854;28;20100;-79
2022/12/03 04:44:39;;;;;;;14.45;12.73;;;;;;;;;;5079530;28;20145;-79
2022/12/03 04:47:11;;;;;;;13.35;12.05;;;;;;;;;;5079498;28;20036;-80
2022/12/03 04:49:46;;;;;;;12.73;11.40;;;;;;;;;;5078886;28;20024;-79
2022/12/03 04:52:12;;;;;;;13.40;12.00;;;;;;;;;;5077883;28;20035;-79
2022/12/03 04:54:38;;;;;;;15.07;13.52;;;;;;;;;;5067540;28;20028;-78
2022/12/03 04:57:04;;;;;;;15.20;13.70;;;;;;;;;;5078413;28;20505;-79
2022/12/03 04:59:30;;;;;;;18.50;16.85;;;;;;;;;;5076859;28;20444;-79
2022/12/03 05:01:55;;;;;;;14.35;12.93;;;;;;;;;;5079003;28;20449;-79
2022/12/03 05:04:20;;;;;;;13.88;11.57;;;;;;;;;;5080791;28;20397;-80
2022/12/03 05:06:46;;;;;;;14.82;13.32;;;;;;;;;;5077455;28;20036;-79
2022/12/03 05:09:11;;;;;;;13.40;12.15;;;;;;;;;;5078558;28;20020;-80
2022/12/03 05:11:37;;;;;;;13.07;11.68;;;;;;;;;;5080165;28;20024;-81
2022/12/03 05:14:02;;;;;;;13.38;11.98;;;;;;;;;;5078904;28;20039;-81
2022/12/03 05:16:27;;;;;;;12.20;10.70;;;;;;;;;;5077916;28;20032;-82
2022/12/03 05:18:53;;;;;;;12.20;11.07;;;;;;;;;;5077599;28;20082;-81
2022/12/03 05:21:18;;;;;;;12.43;11.23;;;;;;;;;;5080723;28;20020;-78
2022/12/03 05:23:43;;;;;;;11.75;10.55;;;;;;;;;;5058541;28;20036;-79
2022/12/03 05:26:09;;;;;;;13.57;12.18;;;;;;;;;;5078584;28;20217;-78
2022/12/03 05:28:34;;;;;;;14.57;13.18;;;;;;;;;;5078671;28;20024;-78
2022/12/03 05:31:00;;;;;;;11.65;10.55;;;;;;;;;;5077227;28;20028;-78
2022/12/03 05:33:25;;;;;;;13.05;10.27;;;;;;;;;;5079325;28;20023;-79
2022/12/03 05:35:50;;;;;;;12.38;11.18;;;;;;;;;;5078842;28;20075;-78
2022/12/03 05:38:16;;;;;;;11.57;10.38;;;;;;;;;;5076752;28;20085;-78
2022/12/03 05:40:41;;;;;;;10.90;9.90;;;;;;;;;;5078705;28;20032;-78
2022/12/03 05:43:06;;;;;;;11.68;10.48;;;;;;;;;;5078562;28;20024;-79
2022/12/03 05:45:33;;;;;;;11.57;10.45;;;;;;;;;;5078289;28;20028;-79
2022/12/03 05:47:59;;;;;;;11.70;10.60;;;;;;;;;;5078433;28;20047;-79
2022/12/03 05:50:25;;;;;;;11.85;10.73;;;;;;;;;;5077713;28;20339;-79
2022/12/03 05:52:50;;;;;;;13.20;11.88;;;;;;;;;;5078119;28;20035;-80
2022/12/03 05:55:16;;;;;;;11.25;10.18;;;;;;;;;;5076878;28;20031;-79
2022/12/03 05:57:41;;;;;;;12.10;10.82;;;;;;;;;;5078945;28;20036;-78
2022/12/03 06:00:10;;;;;;;11.63;10.50;;;;;;;;;;5077722;28;20112;-78
2022/12/03 06:02:36;;;;;;;12.90;11.52;;;;;;;;;;5076906;28;20020;-79
2022/12/03 06:05:01;;;;;;;11.55;10.38;;;;;;;;;;5071595;28;20031;-79
2022/12/03 06:07:26;;;;;;;13.20;11.90;;;;;;;;;;5070448;28;20109;-79
2022/12/03 06:09:52;;;;;;;15.05;13.55;;;;;;;;;;5078762;28;20051;-80
2022/12/03 06:12:17;;;;;;;12.00;10.80;;;;;;;;;;5079069;28;20043;-78
2022/12/03 06:14:42;;;;;;;11.65;10.45;;;;;;;;;;5078029;28;20028;-79
2022/12/03 06:17:08;;;;;;;16.40;14.70;;;;;;;;;;5077812;28;20032;-78
2022/12/03 06:19:33;;;;;;;14.50;13.07;;;;;;;;;;5076357;28;20106;-78
2022/12/03 06:21:58;;;;;;;13.23;11.93;;;;;;;;;;5076926;28;20402;-78
2022/12/03 06:24:24;;;;;;;11.68;10.48;;;;;;;;;;5077679;28;20088;-79
2022/12/03 06:26:49;;;;;;;12.52;11.32;;;;;;;;;;5077358;28;20032;-78
2022/12/03 06:29:14;;;;;;;10.95;9.95;;;;;;;;;;5077066;28;20546;-78
2022/12/03 06:31:40;;;;;;;12.02;10.82;;;;;;;;;;5075645;28;20027;-78
2022/12/03 06:34:05;;;;;;;11.65;10.55;;;;;;;;;;5076714;28;20112;-79
2022/12/03 06:36:30;;;;;;;10.45;9.45;;;;;;;;;;5077005;28;20027;-79
2022/12/03 06:38:56;;;;;;;12.38;11.10;;;;;;;;;;5075379;28;20032;-80
2022/12/03 06:41:21;;;;;;;15.13;13.27;;;;;;;;;;5078297;28;20028;-81
2022/12/03 06:43:46;;;;;;;13.02;11.63;;;;;;;;;;5077158;28;20020;-79
2022/12/03 06:46:12;;;;;;;13.80;12.40;;;;;;;;;;5077268;28;20020;-80
2022/12/03 06:48:37;;;;;;;11.55;10.40;;;;;;;;;;5078373;28;20132;-80
2022/12/03 06:51:02;;;;;;;12.63;10.25;;;;;;;;;;5075725;28;20115;-79
2022/12/03 06:53:28;;;;;;;10.57;9.57;;;;;;;;;;5077489;28;20056;-78
2022/12/03 06:55:53;;;;;;;14.40;12.73;;;;;;;;;;5075363;28;20028;-79
2022/12/03 06:58:18;;;;;;;14.10;12.70;;;;;;;;;;5075401;28;20486;-78
2022/12/03 07:00:44;;;;;;;11.60;10.38;;;;;;;;;;5073515;28;20206;-80
2022/12/03 07:03:09;;;;;;;32.00;24.23;;;;;;;;;;5072768;28;20059;-79
2022/12/03 07:05:34;;;;;;;18.52;16.40;;;;;;;;;;5058988;28;20029;-80
2022/12/03 07:08:00;;;;;;;28.95;21.45;;;;;;;;;;5061288;28;20042;-80
2022/12/03 07:10:25;;;;;;;29.27;22.65;;;;;;;;;;5061187;28;20371;-81
2022/12/03 07:12:50;;;;;;;47.40;33.92;;;;;;;;;;5064496;28;20030;-80
2022/12/03 07:15:16;;;;;;;22.38;17.05;;;;;;;;;;5062919;28;20108;-78
2022/12/03 07:17:41;;;;;;;287.40;173.55;;;;;;;;;;5063430;28;20442;-78
2022/12/03 07:20:07;;;;;;;147.25;92.47;;;;;;;;;;5062496;28;20042;-78
2022/12/03 07:22:32;;;;;;;39.20;27.25;;;;;;;;;;5063730;28;20023;-78
2022/12/03 07:24:58;;;;;;;32.33;24.27;;;;;;;;;;5065548;28;20103;-78
2022/12/03 07:27:23;;;;;;;79.35;51.55;;;;;;;;;;5062757;28;20043;-78
2022/12/03 07:29:48;;;;;;;65.28;46.92;;;;;;;;;;5071162;28;20073;-78
2022/12/03 07:32:14;;;;;;;154.80;109.45;;;;;;;;;;5063834;28;20046;-78
2022/12/03 07:34:39;;;;;;;48.67;37.67;;;;;;;;;;5071451;28;20039;-79
2022/12/03 07:37:04;;;;;;;34.70;30.60;;;;;;;;;;5065950;28;20032;-79
2022/12/03 07:39:30;;;;;;;23.00;20.60;;;;;;;;;;5071247;28;20042;-78
2022/12/03 07:41:55;;;;;;;20.42;18.23;;;;;;;;;;5074057;28;20032;-78
2022/12/03 07:44:20;;;;;;;15.15;13.70;;;;;;;;;;5076963;28;21048;-78
2022/12/03 07:46:46;;;;;;;19.85;17.85;;;;;;;;;;5073933;28;20101;-78
2022/12/03 07:49:11;;;;;;;30.73;27.38;;;;;;;;;;5076445;28;20091;-81
2022/12/03 07:51:37;;;;;;;51.50;40.20;;;;;;;;;;5075913;28;20020;-78
2022/12/03 07:54:02;;;;;;;103.28;78.22;;;;;;;;;;5074230;28;20019;-78
2022/12/03 07:56:27;;;;;;;201.52;149.50;;;;;;;;;;5074489;28;20051;-79
2022/12/03 07:58:53;;;;;;;66.30;53.13;;;;;;;;;;5077161;28;20320;-79
2022/12/03 08:01:18;;;;;;;102.53;76.65;;;;;;;;;;5075130;28;20029;-79
2022/12/03 08:03:44;;;;;;;51.03;39.92;;;;;;;;;;5071674;28;20028;-79
2022/12/03 08:06:09;;;;;;;153.93;87.35;;;;;;;;;;5067521;28;20027;-78
2022/12/03 08:08:34;;;;;;;59.53;42.53;;;;;;;;;;5070702;28;20037;-78
2022/12/03 08:11:00;;;;;;;261.23;153.57;;;;;;;;;;5072928;28;20083;-79
2022/12/03 08:13:26;;;;;;;48.80;35.45;;;;;;;;;;5073748;28;20335;-78
2022/12/03 08:15:51;;;;;;;68.28;47.00;;;;;;;;;;5069537;28;20031;-78
2022/12/03 08:18:18;;;;;;;24.35;21.10;;;;;;;;;;5064495;28;20027;-79
2022/12/03 08:20:44;;;;;;;17.50;15.65;;;;;;;;;;5070240;28;20032;-80
2022/12/03 08:23:14;;;;;;;184.75;141.48;;;;;;;;;;5015228;28;20052;-80
2022/12/03 08:25:39;;;;;;;66.45;53.15;;;;;;;;;;5046206;28;20037;-79
2022/12/03 08:28:27;;;;;;;45.63;39.45;;;;;;;;;;5047494;28;20043;-80
2022/12/03 08:31:00;;;;;;;27.73;24.13;;;;;;;;;;5044768;28;20024;-80
2022/12/03 08:33:26;;;;;;;21.75;18.55;;;;;;;;;;5045143;28;20102;-78
2022/12/03 08:35:52;;;;;;;27.92;23.40;;;;;;;;;;5042543;28;20035;-79
2022/12/03 08:38:20;;;;;;;31.98;28.65;;;;;;;;;;5045824;28;20041;-80
2022/12/03 08:40:47;;;;;;;35.70;29.77;;;;;;;;;;5043450;28;20040;-78
2022/12/03 08:43:20;;;;;;;166.05;114.05;;;;;;;;;;5044188;28;20339;-79
2022/12/03 08:45:48;;;;;;;120.00;98.65;;;;;;;;;;5045729;28;20125;-78
2022/12/03 08:48:19;;;;;;;62.72;46.22;;;;;;;;;;5044775;28;20037;-79
2022/12/03 08:50:45;;;;;;;21.52;17.48;;;;;;;;;;5049058;28;20024;-80
2022/12/03 08:53:10;;;;;;;143.50;94.30;;;;;;;;;;5050667;28;20093;-79
2022/12/03 08:55:37;;;;;;;56.92;42.30;;;;;;;;;;5048386;28;20039;-79
2022/12/03 08:58:17;;;;;;;20.52;17.52;;;;;;;;;;5050847;28;20043;-79
2022/12/03 09:00:43;;;;;;;39.00;30.90;;;;;;;;;;5053355;28;20032;-80
2022/12/03 09:03:11;;;;;;;44.35;36.42;;;;;;;;;;5047461;28;20083;-79
2022/12/03 09:05:37;;;;;;;49.30;38.30;;;;;;;;;;5000284;28;20111;-77
2022/12/03 09:08:02;;;;;;;42.15;33.78;;;;;;;;;;5043187;28;20108;-79
2022/12/03 09:10:27;;;;;;;158.93;126.60;;;;;;;;;;5052439;28;20136;-82
2022/12/03 09:12:53;;;;;;;36.95;32.70;;;;;;;;;;5048190;28;20068;-82
2022/12/03 09:15:18;;;;;;;25.85;23.10;;;;;;;;;;5043736;28;20025;-79
2022/12/03 09:17:43;;;;;;;18.35;16.50;;;;;;;;;;5039905;28;20028;-78
2022/12/03 09:20:09;;;;;;;23.15;20.30;;;;;;;;;;5033375;28;20029;-79
2022/12/03 09:22:34;;;;;;;23.08;18.95;;;;;;;;;;5035178;28;20033;-79
2022/12/03 09:24:59;;;;;;;18.35;16.35;;;;;;;;;;5047318;28;20432;-79
2022/12/03 09:27:25;;;;;;;21.98;19.67;;;;;;;;;;5047998;28;20036;-79
2022/12/03 09:29:50;;;;;;;18.83;16.48;;;;;;;;;;5044964;28;20020;-78
2022/12/03 09:32:16;;;;;;;26.90;23.50;;;;;;;;;;5057587;28;20020;-78
2022/12/03 09:34:41;;;;;;;27.75;24.23;;;;;;;;;;5050444;28;20032;-78
2022/12/03 09:37:07;;;;;;;27.83;23.17;;;;;;;;;;5053299;28;20112;-78
2022/12/03 09:39:32;;;;;;;32.35;25.20;;;;;;;;;;5049914;28;20038;-80
2022/12/03 09:41:58;;;;;;;86.90;60.42;;;;;;;;;;5060103;28;20093;-79
2022/12/03 09:44:23;;;;;;;92.53;64.95;;;;;;;;;;5061469;28;20111;-79
2022/12/03 09:46:48;;;;;;;109.22;69.38;;;;;;;;;;5045107;28;20956;-79
2022/12/03 09:49:15;;;;;;;60.45;41.67;;;;;;;;;;5052660;28;20486;-78
2022/12/03 09:51:40;;;;;;;34.97;26.55;;;;;;;;;;5035775;28;20422;-78
2022/12/03 09:54:06;;;;;;;31.65;25.67;;;;;;;;;;5041095;28;20104;-79
2022/12/03 09:56:32;;;;;;;47.88;39.72;;;;;;;;;;5046425;28;20029;-78
2022/12/03 09:58:58;;;;;;;37.70;32.72;;;;;;;;;;5042655;28;20035;-78
2022/12/03 10:01:24;;;;;;;39.95;34.72;;;;;;;;;;5030857;28;20028;-77
2022/12/03 10:03:49;;;;;;;60.38;47.28;;;;;;;;;;5045823;28;20033;-76
2022/12/03 10:06:19;;;;;;;60.40;49.03;;;;;;;;;;5056391;28;20024;-75
2022/12/03 10:08:48;;;;;;;34.92;29.27;;;;;;;;;;5058593;28;20037;-79
2022/12/03 10:11:15;;;;;;;23.77;20.63;;;;;;;;;;5058802;28;20420;-76
2022/12/03 10:13:40;;;;;;;21.08;18.60;;;;;;;;;;5059045;28;20034;-80
2022/12/03 10:16:09;;;;;;;22.75;20.33;;;;;;;;;;5060903;28;20025;-76
2022/12/03 10:18:34;;;;;;;61.03;49.00;;;;;;;;;;5056509;28;20059;-76
2022/12/03 10:21:00;;;;;;;58.95;44.60;;;;;;;;;;5049455;28;20028;-79
2022/12/03 10:23:26;;;;;;;33.72;26.00;;;;;;;;;;5055771;28;20434;-79
2022/12/03 10:25:55;;;;;;;34.10;29.33;;;;;;;;;;5044765;28;20060;-76
2022/12/03 10:28:28;;;;;;;59.30;47.15;;;;;;;;;;5053092;28;20036;-80
2022/12/03 10:30:56;;;;;;;37.05;32.10;;;;;;;;;;5043802;28;20487;-79
2022/12/03 10:33:38;;;;;;;61.47;42.88;;;;;;;;;;5018511;28;20056;-80
2022/12/03 10:36:20;;;;;;;45.90;34.20;;;;;;;;;;5040511;28;20024;-79
2022/12/03 10:38:45;;;;;;;73.07;55.35;;;;;;;;;;5042272;28;20068;-77
2022/12/03 10:41:24;;;;;;;85.00;60.33;;;;;;;;;;5045879;28;20051;-77
2022/12/03 10:43:49;;;;;;;32.58;25.77;;;;;;;;;;5039489;28;20443;-79
2022/12/03 10:46:20;;;;;;;38.42;30.63;;;;;;;;;;5040739;28;20036;-77
2022/12/03 10:49:06;;;;;;;49.13;40.50;;;;;;;;;;5040286;28;20044;-77
2022/12/03 10:51:31;;;;;;;48.67;40.00;;;;;;;;;;5038671;28;20048;-77
2022/12/03 10:53:57;;;;;;;53.17;45.00;;;;;;;;;;5036605;28;20021;-78
2022/12/03 10:56:26;;;;;;;40.53;34.83;;;;;;;;;;4942521;28;20041;-81
2022/12/03 10:58:52;;;;;;;59.60;47.50;;;;;;;;;;5027286;28;20455;-79
2022/12/03 11:01:21;;;;;;;42.20;34.42;;;;;;;;;;5041508;28;20090;-80
2022/12/03 11:03:47;;;;;;;34.13;29.00;;;;;;;;;;5040087;28;20025;-79
2022/12/03 11:06:13;;;;;;;29.45;26.15;;;;;;;;;;5039958;28;20032;-79
2022/12/03 11:08:41;;;;;;;25.52;22.00;;;;;;;;;;5041026;28;20432;-82
2022/12/03 11:11:20;;;;;;;27.38;23.42;;;;;;;;;;5038945;28;20063;-79
2022/12/03 11:13:50;;;;;;;22.10;18.48;;;;;;;;;;5053890;28;20090;-77
2022/12/03 11:16:34;;;;;;;31.67;28.13;;;;;;;;;;5051007;28;20029;-81
2022/12/03 11:19:00;;;;;;;15.30;13.70;;;;;;;;;;5037533;28;20329;-79
2022/12/03 11:21:25;;;;;;;16.00;14.30;;;;;;;;;;5041549;28;20048;-79
2022/12/03 11:23:51;;;;;;;16.75;14.98;;;;;;;;;;5040256;28;20110;-76
2022/12/03 11:26:16;;;;;;;21.58;17.15;;;;;;;;;;5049784;28;20434;-77
2022/12/03 11:28:44;;;;;;;33.88;27.60;;;;;;;;;;5041717;28;20819;-78
2022/12/03 11:31:29;;;;;;;23.90;20.25;;;;;;;;;;5039230;28;20024;-77
2022/12/03 11:34:28;;;;;;;19.48;16.95;;;;;;;;;;5042876;28;20017;-76
2022/12/03 11:37:08;;;;;;;22.48;18.10;;;;;;;;;;4958875;28;20042;-80
2022/12/03 11:39:55;;;;;;;34.55;27.40;;;;;;;;;;4959260;28;20046;-76
2022/12/03 11:42:26;;;;;;;32.78;26.75;;;;;;;;;;4960139;28;20044;-80
2022/12/03 11:45:10;;;;;;;49.13;41.33;;;;;;;;;;4962022;28;20105;-77
2022/12/03 11:47:35;;;;;;;77.80;60.45;;;;;;;;;;4963754;28;20414;-78
2022/12/03 11:50:00;;;;;;;39.78;31.05;;;;;;;;;;4964738;28;21255;-78
2022/12/03 11:52:28;;;;;;;32.88;23.73;;;;;;;;;;4965775;28;20476;-77
2022/12/03 11:54:56;;;;;;;61.42;46.50;;;;;;;;;;4964977;28;20026;-79
2022/12/03 11:57:24;;;;;;;40.30;32.63;;;;;;;;;;4965344;28;20034;-77
2022/12/03 12:00:16;;;;;;;23.05;20.48;;;;;;;;;;4965378;28;20395;-77
2022/12/03 12:02:41;;;;;;;26.00;23.25;;;;;;;;;;4962564;28;20354;-76
2022/12/03 12:05:17;;;;;;;27.00;24.13;;;;;;;;;;4965731;28;20062;-78
2022/12/03 12:07:46;;;;;;;26.55;22.90;;;;;;;;;;4966048;28;20105;-73
2022/12/03 12:10:12;;;;;;;27.50;22.85;;;;;;;;;;4970598;28;20043;-77
2022/12/03 12:12:38;;;;;;;26.02;23.00;;;;;;;;;;5001400;28;20099;-79
2022/12/03 12:15:22;;;;;;;16.27;14.52;;;;;;;;;;5039853;28;20025;-76
2022/12/03 12:17:47;;;;;;;28.10;21.27;;;;;;;;;;5040912;28;20052;-76
2022/12/03 12:20:22;;;;;;;19.67;15.55;;;;;;;;;;5038983;28;20061;-77
2022/12/03 12:22:47;;;;;;;19.90;16.48;;;;;;;;;;5041413;28;20043;-76
2022/12/03 12:25:28;;;;;;;18.02;16.20;;;;;;;;;;5039836;28;20033;-75
2022/12/03 12:27:54;;;;;;;20.92;18.70;;;;;;;;;;5040283;28;20131;-77
2022/12/03 12:30:20;;;;;;;22.27;19.88;;;;;;;;;;5039851;28;20116;-74
2022/12/03 12:32:47;;;;;;;19.33;17.20;;;;;;;;;;5020736;28;20029;-75
2022/12/03 12:35:23;;;;;;;28.83;24.15;;;;;;;;;;5038122;28;20103;-73
2022/12/03 12:37:55;;;;;;;17.38;15.57;;;;;;;;;;5040286;28;20371;-74
2022/12/03 12:40:25;;;;;;;21.92;19.63;;;;;;;;;;5039152;28;20043;-78
2022/12/03 12:42:56;;;;;;;15.95;14.25;;;;;;;;;;5028351;28;20065;-76
2022/12/03 12:45:26;;;;;;;15.25;13.68;;;;;;;;;;5030546;28;20017;-75
2022/12/03 12:48:10;;;;;;;18.42;16.48;;;;;;;;;;5011641;28;20069;-75
2022/12/03 12:50:36;;;;;;;45.45;38.67;;;;;;;;;;5040912;28;20800;-77
2022/12/03 12:53:11;;;;;;;47.50;42.08;;;;;;;;;;5039608;28;20368;-77
2022/12/03 12:55:37;;;;;;;21.95;19.65;;;;;;;;;;5040558;28;20495;-80
2022/12/03 12:58:06;;;;;;;34.78;29.33;;;;;;;;;;5041765;28;20024;-81
2022/12/03 13:00:31;;;;;;;23.13;20.67;;;;;;;;;;5039478;28;20021;-76
2022/12/03 13:02:58;;;;;;;26.23;23.50;;;;;;;;;;5026545;28;20095;-77
2022/12/03 13:05:26;;;;;;;33.08;29.10;;;;;;;;;;5023873;28;20022;-78
2022/12/03 13:07:53;;;;;;;70.03;47.25;;;;;;;;;;5035065;28;20029;-77
2022/12/03 13:10:36;;;;;;;147.95;83.90;;;;;;;;;;5032685;28;20044;-78
2022/12/03 13:13:11;;;;;;;102.97;63.55;;;;;;;;;;5043486;28;20096;-82
2022/12/03 13:15:50;;;;;;;31.33;25.58;;;;;;;;;;5041555;28;20025;-77
2022/12/03 13:18:22;;;;;;;26.63;19.67;;;;;;;;;;5047025;28;20044;-78
2022/12/03 13:20:48;;;;;;;32.42;26.70;;;;;;;;;;5045754;28;20025;-81
2022/12/03 13:23:24;;;;;;;35.97;29.25;;;;;;;;;;5045714;28;20466;-78
2022/12/03 13:25:50;;;;;;;26.70;23.52;;;;;;;;;;5047605;28;20021;-79
2022/12/03 13:28:16;;;;;;;22.55;19.58;;;;;;;;;;5055043;28;20477;-79
2022/12/03 13:30:41;;;;;;;19.73;15.40;;;;;;;;;;5056218;28;20044;-79
2022/12/03 13:33:13;;;;;;;9.48;8.48;;;;;;;;;;5030853;28;20023;-79
2022/12/03 13:35:40;;;;;;;9.15;8.20;;;;;;;;;;5051099;28;20486;-76
2022/12/03 13:38:12;;;;;;;15.65;13.35;;;;;;;;;;5045889;28;20034;-78
2022/12/03 13:40:37;;;;;;;25.20;19.67;;;;;;;;;;5045620;28;20154;-77
2022/12/03 13:43:03;;;;;;;44.85;32.88;;;;;;;;;;5042719;28;20115;-81
2022/12/03 13:45:37;;;;;;;61.95;46.35;;;;;;;;;;5042098;28;20028;-80
2022/12/03 13:48:14;;;;;;;35.45;29.67;;;;;;;;;;5042411;28;20047;-79
2022/12/03 13:50:40;;;;;;;50.65;39.40;;;;;;;;;;5042724;28;20431;-80
2022/12/03 13:53:06;;;;;;;77.13;62.45;;;;;;;;;;5047201;28;20142;-76
2022/12/03 13:55:31;;;;;;;48.53;40.72;;;;;;;;;;5056413;28;20431;-76
2022/12/03 13:57:56;;;;;;;36.17;31.15;;;;;;;;;;5056270;28;20033;-78
2022/12/03 14:00:22;;;;;;;68.47;58.47;;;;;;;;;;5056423;28;20035;-77
2022/12/03 14:02:47;;;;;;;74.28;62.53;;;;;;;;;;5054726;28;20517;-78
2022/12/03 14:05:12;;;;;;;68.60;55.13;;;;;;;;;;5052536;28;20058;-83
2022/12/03 14:07:38;;;;;;;48.72;42.58;;;;;;;;;;5052868;28;20519;-77
2022/12/03 14:10:04;;;;;;;59.50;53.00;;;;;;;;;;5056346;28;20812;-80
2022/12/03 14:12:32;;;;;;;46.13;41.13;;;;;;;;;;5049496;28;20027;-80
2022/12/03 14:14:58;;;;;;;56.13;49.28;;;;;;;;;;5052060;28;20025;-79
2022/12/03 14:17:23;;;;;;;35.78;28.10;;;;;;;;;;5055477;28;20032;-79
2022/12/03 14:19:49;;;;;;;33.35;27.85;;;;;;;;;;5043307;28;20029;-77
2022/12/03 14:22:14;;;;;;;22.95;20.45;;;;;;;;;;5037533;28;20020;-81
2022/12/03 14:24:39;;;;;;;23.05;20.38;;;;;;;;;;5041278;28;20040;-85
2022/12/03 14:27:05;;;;;;;43.50;35.90;;;;;;;;;;5041405;28;20444;-82
2022/12/03 14:29:30;;;;;;;29.05;20.98;;;;;;;;;;5043390;28;20032;-87
2022/12/03 14:31:55;;;;;;;41.75;35.47;;;;;;;;;;5042984;28;20355;-88